KCHS/CHS METAR and TAF weather

Enter ICAO airport designator
Station Type Date Time Source
KCHS METAR 2019/12/14 11:02 UTC NOAA

KCHS 141102Z 31006KT 10SM BKN004 BKN028 09/08 A2962 RMK AO2 RAE1057 P0000 T00890083


Station Type Date Time Source
KCHS Decoded METAR 2019/12/14 11:02 UTC NOAA

CHARLESTON INT'L AIRPORT, SC, United States (KCHS) 32-54N 080-02W 13M
Dec 14, 2019 - 06:02 AM EST / 2019.12.14 1102 UTC
Wind: from the NW (310 degrees) at 7 MPH (6 KT):0
Visibility: 10 mile(s):0
Sky conditions: mostly cloudy
Precipitation last hour: A trace
Temperature: 48.0 F (8.9 C)
Dew Point: 46.9 F (8.3 C)
Relative Humidity: 96%
Pressure (altimeter): 29.62 in. Hg (1003 hPa)
ob: KCHS 141102Z 31006KT 10SM BKN004 BKN028 09/08 A2962 RMK AO2 RAE1057 P0000 T00890083
cycle: 11

Station Type Date Time Source
KCHS TAF 2019/12/14 12:24 UTC NOAA

TAF KCHS 141123Z 1412/1512 26007KT P6SM -SHRA BKN004 OVC060
FM141330 27008KT P6SM BKN007
FM141500 26012G18KT P6SM SCT008 BKN015
FM141800 27015G22KT P6SM SCT020
FM142300 27007KT P6SM SKC

Example: see airport list